Aeroporto :
LOGIN :

Iscrizione | Disclaimer

   EN    FR    IT 

 










Sommario :    VFR   VFR Marginale   IFR   IFR Intensivo   IFR Molto Intensivo
Visibilità : 
Base nubi : 
>= 8 km
>= 3000ft
5 / 8 km
1000 / 3000 ft
1500m / 5 km
500 / 1000 ft
800 / 1500m
200 / 500 ft
< 800m
< 200 ft
Simboli :   Temporali  Nebbia  Neve Forte  Precipitazioni Forti  Vento > 20 kt
SIGMETs :   Varie  Temporali  Ghiacco  Turbolenza  Onda orograficha  Ceneri Vulcaniche







- Altitudine del aeroporto : 1585 ft
- Codice IATA : SIR


LSGS - Sion

ULTIMO METAR :
  • 172320Z AUTO VRB01KT CAVOK 21/12 Q1015

METARs OBSOLETI :
  • 172250Z AUTO 00000KT 9999 NCD 22/12 Q1015
  • 172220Z AUTO VRB01KT 9999 NCD 22/13 Q1014
  • 172150Z AUTO VRB01KT 9999 NCD 23/12 Q1014
  • 172120Z AUTO VRB02KT 9999 SCT130 SCT150 24/12 Q1014
  • 172050Z AUTO VRB01KT 9999 SCT150 24/13 Q1014

TAF TAF LSGS
Valido dal 17 a 15 ore il 18 a 00 ore UTC


171425Z 1715/1724 25012KT CAVOK
BECMG 1717/1719 VRB03KT
Nessun NOTAM noto per questo aeroporto.



MetMap, La meteo Aeronautica in un colpo d'occhio ! - Copyright ORBIFLY Dicembre 2007 - Disclaimer

ORBIFLY MET'MAP TEAM :

Programmazione e sviluppo : Alexandra Zaïnal
Concezione e sviluppo : Baudouin d'Aumeries
Co-Programmazione e sviluppo : Marc-Olivier Méhu
Supporto tecnico e logistico : Manuel Goepfert
Aiuto per la traduzione : Arnaldo La Scala

Contatto : metmap@orbifly.com




FONTI E CREDITI :

   NOAA